sensor_id;sensor_type;location;lat;lon;timestamp;P1;durP1;ratioP1;P2;durP2;ratioP2
70169;SDS011;57543;45.442;9.212;2023-03-08T00:01:56;14.20;;;5.75;;
70169;SDS011;57543;45.442;9.212;2023-03-08T00:05:00;13.40;;;6.05;;
70169;SDS011;57543;45.442;9.212;2023-03-08T00:08:04;16.90;;;6.67;;
70169;SDS011;57543;45.442;9.212;2023-03-08T00:11:09;17.33;;;6.45;;
70169;SDS011;57543;45.442;9.212;2023-03-08T00:14:13;14.40;;;6.32;;
70169;SDS011;57543;45.442;9.212;2023-03-08T00:17:17;15.63;;;6.15;;
70169;SDS011;57543;45.442;9.212;2023-03-08T00:20:21;13.88;;;6.35;;
70169;SDS011;57543;45.442;9.212;2023-03-08T00:23:25;13.73;;;6.40;;
70169;SDS011;57543;45.442;9.212;2023-03-08T00:26:28;12.70;;;6.32;;
70169;SDS011;57543;45.442;9.212;2023-03-08T00:29:32;14.73;;;6.68;;
70169;SDS011;57543;45.442;9.212;2023-03-08T00:32:36;14.40;;;6.75;;
70169;SDS011;57543;45.442;9.212;2023-03-08T00:35:40;14.70;;;7.35;;
70169;SDS011;57543;45.442;9.212;2023-03-08T00:38:43;19.03;;;8.40;;
70169;SDS011;57543;45.442;9.212;2023-03-08T00:41:50;15.00;;;7.10;;
70169;SDS011;57543;45.442;9.212;2023-03-08T00:44:53;15.88;;;7.28;;
70169;SDS011;57543;45.442;9.212;2023-03-08T00:47:57;20.65;;;7.80;;
70169;SDS011;57543;45.442;9.212;2023-03-08T00:51:01;15.50;;;7.35;;
70169;SDS011;57543;45.442;9.212;2023-03-08T00:54:06;16.57;;;7.60;;
70169;SDS011;57543;45.442;9.212;2023-03-08T00:57:10;16.20;;;7.50;;
70169;SDS011;57543;45.442;9.212;2023-03-08T01:00:14;13.48;;;7.18;;
70169;SDS011;57543;45.442;9.212;2023-03-08T01:03:19;15.80;;;7.07;;
70169;SDS011;57543;45.442;9.212;2023-03-08T01:06:26;14.82;;;7.20;;
70169;SDS011;57543;45.442;9.212;2023-03-08T01:09:30;15.63;;;7.50;;
70169;SDS011;57543;45.442;9.212;2023-03-08T01:12:34;15.40;;;6.82;;
70169;SDS011;57543;45.442;9.212;2023-03-08T01:15:38;13.38;;;7.05;;
70169;SDS011;57543;45.442;9.212;2023-03-08T01:18:43;16.70;;;7.60;;
70169;SDS011;57543;45.442;9.212;2023-03-08T01:21:46;14.90;;;7.68;;
70169;SDS011;57543;45.442;9.212;2023-03-08T01:24:50;17.70;;;7.47;;
70169;SDS011;57543;45.442;9.212;2023-03-08T01:27:54;17.05;;;7.70;;
70169;SDS011;57543;45.442;9.212;2023-03-08T01:31:17;17.00;;;8.20;;
70169;SDS011;57543;45.442;9.212;2023-03-08T01:34:22;16.38;;;7.88;;
70169;SDS011;57543;45.442;9.212;2023-03-08T01:37:26;17.70;;;7.47;;
70169;SDS011;57543;45.442;9.212;2023-03-08T01:40:29;16.67;;;7.83;;
70169;SDS011;57543;45.442;9.212;2023-03-08T01:43:34;16.13;;;7.50;;
70169;SDS011;57543;45.442;9.212;2023-03-08T01:46:39;19.38;;;8.73;;
70169;SDS011;57543;45.442;9.212;2023-03-08T01:50:06;18.30;;;8.38;;
70169;SDS011;57543;45.442;9.212;2023-03-08T01:53:14;15.85;;;8.18;;
70169;SDS011;57543;45.442;9.212;2023-03-08T01:56:18;19.23;;;8.27;;
70169;SDS011;57543;45.442;9.212;2023-03-08T01:59:23;23.92;;;8.95;;
70169;SDS011;57543;45.442;9.212;2023-03-08T02:02:28;20.33;;;9.20;;
70169;SDS011;57543;45.442;9.212;2023-03-08T02:05:38;23.45;;;9.35;;
70169;SDS011;57543;45.442;9.212;2023-03-08T02:08:51;19.08;;;9.27;;
70169;SDS011;57543;45.442;9.212;2023-03-08T02:11:56;16.00;;;9.00;;
70169;SDS011;57543;45.442;9.212;2023-03-08T02:15:04;18.48;;;9.15;;
70169;SDS011;57543;45.442;9.212;2023-03-08T02:18:10;19.02;;;9.13;;
70169;SDS011;57543;45.442;9.212;2023-03-08T02:21:14;17.77;;;9.25;;
70169;SDS011;57543;45.442;9.212;2023-03-08T02:24:19;19.30;;;9.23;;
70169;SDS011;57543;45.442;9.212;2023-03-08T02:27:25;21.67;;;8.60;;
70169;SDS011;57543;45.442;9.212;2023-03-08T02:30:31;18.63;;;8.93;;
70169;SDS011;57543;45.442;9.212;2023-03-08T02:33:37;18.85;;;9.63;;
70169;SDS011;57543;45.442;9.212;2023-03-08T02:36:41;20.88;;;9.27;;
70169;SDS011;57543;45.442;9.212;2023-03-08T02:39:45;20.67;;;9.93;;
70169;SDS011;57543;45.442;9.212;2023-03-08T02:42:48;21.13;;;8.93;;
70169;SDS011;57543;45.442;9.212;2023-03-08T02:45:51;20.92;;;9.70;;
70169;SDS011;57543;45.442;9.212;2023-03-08T02:48:55;18.15;;;9.50;;
70169;SDS011;57543;45.442;9.212;2023-03-08T02:52:01;21.67;;;10.45;;
70169;SDS011;57543;45.442;9.212;2023-03-08T02:55:05;20.05;;;9.60;;
70169;SDS011;57543;45.442;9.212;2023-03-08T02:58:10;20.03;;;9.70;;
70169;SDS011;57543;45.442;9.212;2023-03-08T03:01:14;20.38;;;9.88;;
70169;SDS011;57543;45.442;9.212;2023-03-08T03:04:18;21.15;;;9.95;;
70169;SDS011;57543;45.442;9.212;2023-03-08T03:07:23;24.17;;;10.27;;
70169;SDS011;57543;45.442;9.212;2023-03-08T03:10:27;21.40;;;10.07;;
70169;SDS011;57543;45.442;9.212;2023-03-08T03:13:32;20.30;;;9.73;;
70169;SDS011;57543;45.442;9.212;2023-03-08T03:16:36;21.50;;;10.60;;
70169;SDS011;57543;45.442;9.212;2023-03-08T03:19:40;21.73;;;10.05;;
70169;SDS011;57543;45.442;9.212;2023-03-08T03:22:44;23.77;;;10.15;;
70169;SDS011;57543;45.442;9.212;2023-03-08T03:25:49;21.27;;;9.82;;
70169;SDS011;57543;45.442;9.212;2023-03-08T03:28:56;20.60;;;9.17;;
70169;SDS011;57543;45.442;9.212;2023-03-08T03:32:03;21.48;;;10.10;;
70169;SDS011;57543;45.442;9.212;2023-03-08T03:35:08;19.10;;;8.93;;
70169;SDS011;57543;45.442;9.212;2023-03-08T03:38:12;19.52;;;10.18;;
70169;SDS011;57543;45.442;9.212;2023-03-08T03:41:18;20.25;;;10.35;;
70169;SDS011;57543;45.442;9.212;2023-03-08T03:44:27;19.33;;;9.57;;
70169;SDS011;57543;45.442;9.212;2023-03-08T03:47:32;20.45;;;9.57;;
70169;SDS011;57543;45.442;9.212;2023-03-08T03:50:39;19.95;;;9.10;;
70169;SDS011;57543;45.442;9.212;2023-03-08T03:53:48;18.45;;;9.48;;
70169;SDS011;57543;45.442;9.212;2023-03-08T03:56:53;21.00;;;10.27;;
70169;SDS011;57543;45.442;9.212;2023-03-08T04:00:02;19.50;;;10.17;;
70169;SDS011;57543;45.442;9.212;2023-03-08T04:03:16;21.40;;;9.73;;
70169;SDS011;57543;45.442;9.212;2023-03-08T04:06:22;19.30;;;10.73;;
70169;SDS011;57543;45.442;9.212;2023-03-08T04:09:28;18.50;;;9.38;;
70169;SDS011;57543;45.442;9.212;2023-03-08T04:12:49;20.65;;;10.02;;
70169;SDS011;57543;45.442;9.212;2023-03-08T04:15:54;20.07;;;10.43;;
70169;SDS011;57543;45.442;9.212;2023-03-08T04:18:59;19.15;;;9.98;;
70169;SDS011;57543;45.442;9.212;2023-03-08T04:22:06;21.45;;;10.10;;
70169;SDS011;57543;45.442;9.212;2023-03-08T04:25:16;22.20;;;10.10;;
70169;SDS011;57543;45.442;9.212;2023-03-08T04:28:27;20.55;;;10.45;;
70169;SDS011;57543;45.442;9.212;2023-03-08T04:31:32;21.07;;;9.23;;
70169;SDS011;57543;45.442;9.212;2023-03-08T04:34:39;21.70;;;11.10;;
70169;SDS011;57543;45.442;9.212;2023-03-08T04:37:45;21.27;;;11.05;;
70169;SDS011;57543;45.442;9.212;2023-03-08T04:40:50;21.17;;;11.52;;
70169;SDS011;57543;45.442;9.212;2023-03-08T04:44:22;22.92;;;11.75;;
70169;SDS011;57543;45.442;9.212;2023-03-08T04:47:28;22.37;;;11.87;;
70169;SDS011;57543;45.442;9.212;2023-03-08T04:50:32;26.70;;;12.13;;
70169;SDS011;57543;45.442;9.212;2023-03-08T04:53:36;23.10;;;12.60;;
70169;SDS011;57543;45.442;9.212;2023-03-08T04:56:42;25.67;;;12.52;;
70169;SDS011;57543;45.442;9.212;2023-03-08T04:59:47;26.23;;;13.45;;
70169;SDS011;57543;45.442;9.212;2023-03-08T05:02:51;27.80;;;13.43;;
70169;SDS011;57543;45.442;9.212;2023-03-08T05:05:56;28.70;;;13.30;;
70169;SDS011;57543;45.442;9.212;2023-03-08T05:09:00;24.67;;;12.73;;
70169;SDS011;57543;45.442;9.212;2023-03-08T05:12:05;24.73;;;12.55;;
70169;SDS011;57543;45.442;9.212;2023-03-08T05:15:21;23.85;;;13.10;;
70169;SDS011;57543;45.442;9.212;2023-03-08T05:18:28;31.37;;;13.77;;
70169;SDS011;57543;45.442;9.212;2023-03-08T05:21:31;22.55;;;11.85;;
70169;SDS011;57543;45.442;9.212;2023-03-08T05:24:38;27.77;;;12.48;;
70169;SDS011;57543;45.442;9.212;2023-03-08T05:27:44;23.40;;;12.35;;
70169;SDS011;57543;45.442;9.212;2023-03-08T05:30:49;23.92;;;11.82;;
70169;SDS011;57543;45.442;9.212;2023-03-08T05:34:03;25.97;;;12.53;;
70169;SDS011;57543;45.442;9.212;2023-03-08T05:37:12;30.70;;;11.93;;
70169;SDS011;57543;45.442;9.212;2023-03-08T05:40:18;28.48;;;12.15;;
70169;SDS011;57543;45.442;9.212;2023-03-08T05:43:23;25.02;;;11.32;;
70169;SDS011;57543;45.442;9.212;2023-03-08T05:46:27;22.00;;;11.70;;
70169;SDS011;57543;45.442;9.212;2023-03-08T05:49:31;25.60;;;12.30;;
70169;SDS011;57543;45.442;9.212;2023-03-08T05:52:35;20.35;;;11.77;;
70169;SDS011;57543;45.442;9.212;2023-03-08T05:55:39;24.70;;;12.35;;
70169;SDS011;57543;45.442;9.212;2023-03-08T05:58:43;23.15;;;11.57;;
70169;SDS011;57543;45.442;9.212;2023-03-08T06:01:48;21.60;;;11.80;;
70169;SDS011;57543;45.442;9.212;2023-03-08T06:04:59;26.20;;;13.23;;
70169;SDS011;57543;45.442;9.212;2023-03-08T06:08:03;24.05;;;12.02;;
70169;SDS011;57543;45.442;9.212;2023-03-08T06:11:07;22.45;;;12.07;;
70169;SDS011;57543;45.442;9.212;2023-03-08T06:14:12;25.67;;;11.98;;
70169;SDS011;57543;45.442;9.212;2023-03-08T06:17:16;22.90;;;11.98;;
70169;SDS011;57543;45.442;9.212;2023-03-08T06:20:23;21.57;;;12.27;;
70169;SDS011;57543;45.442;9.212;2023-03-08T06:23:28;23.92;;;12.25;;
70169;SDS011;57543;45.442;9.212;2023-03-08T06:26:33;24.92;;;12.93;;
70169;SDS011;57543;45.442;9.212;2023-03-08T06:29:37;25.98;;;12.88;;
70169;SDS011;57543;45.442;9.212;2023-03-08T06:32:42;25.27;;;12.30;;
70169;SDS011;57543;45.442;9.212;2023-03-08T06:35:59;25.03;;;12.37;;
70169;SDS011;57543;45.442;9.212;2023-03-08T06:39:07;23.67;;;11.98;;
70169;SDS011;57543;45.442;9.212;2023-03-08T06:42:11;22.50;;;12.48;;
70169;SDS011;57543;45.442;9.212;2023-03-08T06:45:16;24.55;;;11.95;;
70169;SDS011;57543;45.442;9.212;2023-03-08T06:48:19;24.25;;;12.93;;
70169;SDS011;57543;45.442;9.212;2023-03-08T06:51:23;25.97;;;12.73;;
70169;SDS011;57543;45.442;9.212;2023-03-08T06:54:27;25.02;;;12.32;;
70169;SDS011;57543;45.442;9.212;2023-03-08T06:57:31;26.65;;;13.05;;
70169;SDS011;57543;45.442;9.212;2023-03-08T07:00:34;26.15;;;13.32;;
70169;SDS011;57543;45.442;9.212;2023-03-08T07:03:38;26.35;;;13.57;;
70169;SDS011;57543;45.442;9.212;2023-03-08T07:06:42;22.73;;;12.17;;
70169;SDS011;57543;45.442;9.212;2023-03-08T07:09:47;25.52;;;13.05;;
70169;SDS011;57543;45.442;9.212;2023-03-08T07:12:51;28.85;;;13.73;;
70169;SDS011;57543;45.442;9.212;2023-03-08T07:15:55;25.85;;;13.27;;
70169;SDS011;57543;45.442;9.212;2023-03-08T07:19:00;23.23;;;13.23;;
70169;SDS011;57543;45.442;9.212;2023-03-08T07:22:05;29.57;;;13.00;;
70169;SDS011;57543;45.442;9.212;2023-03-08T07:25:15;24.33;;;12.02;;
70169;SDS011;57543;45.442;9.212;2023-03-08T07:28:23;21.15;;;12.05;;
70169;SDS011;57543;45.442;9.212;2023-03-08T07:31:27;26.02;;;11.95;;
70169;SDS011;57543;45.442;9.212;2023-03-08T07:34:31;24.95;;;11.65;;
70169;SDS011;57543;45.442;9.212;2023-03-08T07:37:35;33.70;;;11.93;;
70169;SDS011;57543;45.442;9.212;2023-03-08T07:40:39;29.65;;;12.73;;
70169;SDS011;57543;45.442;9.212;2023-03-08T07:43:43;25.52;;;12.32;;
70169;SDS011;57543;45.442;9.212;2023-03-08T07:46:51;22.75;;;11.57;;
70169;SDS011;57543;45.442;9.212;2023-03-08T07:49:55;22.92;;;12.23;;
70169;SDS011;57543;45.442;9.212;2023-03-08T07:52:59;28.17;;;13.57;;
70169;SDS011;57543;45.442;9.212;2023-03-08T07:56:03;21.25;;;11.95;;
70169;SDS011;57543;45.442;9.212;2023-03-08T07:59:07;24.20;;;11.60;;
70169;SDS011;57543;45.442;9.212;2023-03-08T08:02:11;24.40;;;11.90;;
70169;SDS011;57543;45.442;9.212;2023-03-08T08:05:15;22.63;;;11.70;;
70169;SDS011;57543;45.442;9.212;2023-03-08T08:08:20;29.30;;;12.97;;
70169;SDS011;57543;45.442;9.212;2023-03-08T08:11:23;24.13;;;11.65;;
70169;SDS011;57543;45.442;9.212;2023-03-08T08:14:26;22.88;;;11.40;;
70169;SDS011;57543;45.442;9.212;2023-03-08T08:17:30;28.95;;;13.95;;
70169;SDS011;57543;45.442;9.212;2023-03-08T08:20:34;23.48;;;12.48;;
70169;SDS011;57543;45.442;9.212;2023-03-08T08:23:38;27.57;;;13.80;;
70169;SDS011;57543;45.442;9.212;2023-03-08T08:26:43;29.75;;;14.25;;
70169;SDS011;57543;45.442;9.212;2023-03-08T08:29:46;25.42;;;13.27;;
70169;SDS011;57543;45.442;9.212;2023-03-08T08:32:51;24.03;;;13.27;;
70169;SDS011;57543;45.442;9.212;2023-03-08T08:35:55;25.40;;;13.38;;
70169;SDS011;57543;45.442;9.212;2023-03-08T08:38:59;25.00;;;12.63;;
70169;SDS011;57543;45.442;9.212;2023-03-08T08:42:03;22.38;;;12.60;;
70169;SDS011;57543;45.442;9.212;2023-03-08T08:45:07;26.83;;;13.10;;
70169;SDS011;57543;45.442;9.212;2023-03-08T08:48:11;27.13;;;13.60;;
70169;SDS011;57543;45.442;9.212;2023-03-08T08:51:16;26.02;;;14.05;;
70169;SDS011;57543;45.442;9.212;2023-03-08T08:54:20;26.20;;;14.07;;
70169;SDS011;57543;45.442;9.212;2023-03-08T08:57:24;25.30;;;12.93;;
70169;SDS011;57543;45.442;9.212;2023-03-08T09:00:28;24.67;;;13.25;;
70169;SDS011;57543;45.442;9.212;2023-03-08T09:03:32;29.20;;;13.65;;
70169;SDS011;57543;45.442;9.212;2023-03-08T09:06:36;25.02;;;13.05;;
70169;SDS011;57543;45.442;9.212;2023-03-08T09:09:39;26.00;;;12.77;;
70169;SDS011;57543;45.442;9.212;2023-03-08T09:12:42;24.98;;;14.35;;
70169;SDS011;57543;45.442;9.212;2023-03-08T09:15:48;28.08;;;13.30;;
70169;SDS011;57543;45.442;9.212;2023-03-08T09:18:52;24.35;;;12.85;;
70169;SDS011;57543;45.442;9.212;2023-03-08T09:21:58;26.17;;;13.30;;
70169;SDS011;57543;45.442;9.212;2023-03-08T09:25:03;24.40;;;13.00;;
70169;SDS011;57543;45.442;9.212;2023-03-08T09:28:08;24.73;;;12.80;;
70169;SDS011;57543;45.442;9.212;2023-03-08T09:31:14;25.63;;;13.35;;
70169;SDS011;57543;45.442;9.212;2023-03-08T09:34:18;49.65;;;18.42;;
70169;SDS011;57543;45.442;9.212;2023-03-08T09:37:22;31.50;;;14.07;;
70169;SDS011;57543;45.442;9.212;2023-03-08T09:40:26;25.97;;;13.53;;
70169;SDS011;57543;45.442;9.212;2023-03-08T09:53:57;23.05;;;13.05;;
70169;SDS011;57543;45.442;9.212;2023-03-08T09:57:05;23.87;;;12.53;;
70169;SDS011;57543;45.442;9.212;2023-03-08T10:00:18;21.92;;;12.23;;
70169;SDS011;57543;45.442;9.212;2023-03-08T10:07:26;27.90;;;14.25;;
70169;SDS011;57543;45.442;9.212;2023-03-08T10:14:23;26.23;;;13.13;;
70169;SDS011;57543;45.442;9.212;2023-03-08T10:17:52;28.98;;;12.45;;
70169;SDS011;57543;45.442;9.212;2023-03-08T10:20:59;27.60;;;12.60;;
70169;SDS011;57543;45.442;9.212;2023-03-08T10:24:13;20.58;;;11.02;;
70169;SDS011;57543;45.442;9.212;2023-03-08T10:27:19;22.70;;;10.60;;
70169;SDS011;57543;45.442;9.212;2023-03-08T10:30:59;22.90;;;11.33;;
70169;SDS011;57543;45.442;9.212;2023-03-08T10:37:16;23.27;;;11.38;;
70169;SDS011;57543;45.442;9.212;2023-03-08T10:40:23;22.63;;;11.27;;
70169;SDS011;57543;45.442;9.212;2023-03-08T10:43:27;26.70;;;12.45;;
70169;SDS011;57543;45.442;9.212;2023-03-08T10:46:34;20.50;;;9.80;;
70169;SDS011;57543;45.442;9.212;2023-03-08T10:50:01;16.75;;;8.20;;
70169;SDS011;57543;45.442;9.212;2023-03-08T10:53:17;23.23;;;8.88;;
70169;SDS011;57543;45.442;9.212;2023-03-08T10:56:25;17.58;;;9.27;;
70169;SDS011;57543;45.442;9.212;2023-03-08T10:59:31;22.88;;;10.48;;
70169;SDS011;57543;45.442;9.212;2023-03-08T11:02:36;19.13;;;9.87;;
70169;SDS011;57543;45.442;9.212;2023-03-08T11:05:50;17.38;;;8.38;;
70169;SDS011;57543;45.442;9.212;2023-03-08T11:09:00;15.20;;;7.00;;
70169;SDS011;57543;45.442;9.212;2023-03-08T11:12:10;12.75;;;6.50;;
70169;SDS011;57543;45.442;9.212;2023-03-08T11:15:28;13.77;;;6.10;;
70169;SDS011;57543;45.442;9.212;2023-03-08T11:22:33;12.07;;;5.30;;
70169;SDS011;57543;45.442;9.212;2023-03-08T11:26:22;11.40;;;5.47;;
70169;SDS011;57543;45.442;9.212;2023-03-08T11:29:26;14.60;;;5.07;;
70169;SDS011;57543;45.442;9.212;2023-03-08T11:32:39;9.68;;;4.75;;
70169;SDS011;57543;45.442;9.212;2023-03-08T11:39:34;14.75;;;6.47;;
70169;SDS011;57543;45.442;9.212;2023-03-08T11:43:08;15.18;;;6.40;;
70169;SDS011;57543;45.442;9.212;2023-03-08T11:46:25;11.85;;;6.10;;
70169;SDS011;57543;45.442;9.212;2023-03-08T11:49:36;14.65;;;7.38;;
70169;SDS011;57543;45.442;9.212;2023-03-08T11:52:59;16.73;;;8.10;;
70169;SDS011;57543;45.442;9.212;2023-03-08T12:02:32;15.50;;;7.88;;
70169;SDS011;57543;45.442;9.212;2023-03-08T12:05:41;14.63;;;7.50;;
70169;SDS011;57543;45.442;9.212;2023-03-08T12:09:03;13.50;;;7.67;;
70169;SDS011;57543;45.442;9.212;2023-03-08T12:12:15;15.48;;;7.68;;
70169;SDS011;57543;45.442;9.212;2023-03-08T12:21:37;15.48;;;7.70;;
70169;SDS011;57543;45.442;9.212;2023-03-08T12:24:53;16.27;;;8.13;;
70169;SDS011;57543;45.442;9.212;2023-03-08T12:28:21;20.77;;;9.75;;
70169;SDS011;57543;45.442;9.212;2023-03-08T12:31:26;13.90;;;8.38;;
70169;SDS011;57543;45.442;9.212;2023-03-08T12:34:38;16.85;;;7.47;;
70169;SDS011;57543;45.442;9.212;2023-03-08T12:37:42;12.60;;;6.80;;
70169;SDS011;57543;45.442;9.212;2023-03-08T12:40:57;12.40;;;6.20;;
70169;SDS011;57543;45.442;9.212;2023-03-08T12:44:05;15.48;;;6.65;;
70169;SDS011;57543;45.442;9.212;2023-03-08T12:47:26;12.48;;;6.72;;
70169;SDS011;57543;45.442;9.212;2023-03-08T12:50:32;14.75;;;7.07;;
70169;SDS011;57543;45.442;9.212;2023-03-08T12:53:42;15.70;;;7.38;;
70169;SDS011;57543;45.442;9.212;2023-03-08T12:56:57;16.93;;;7.93;;
70169;SDS011;57543;45.442;9.212;2023-03-08T13:00:04;15.23;;;7.85;;
70169;SDS011;57543;45.442;9.212;2023-03-08T13:03:28;14.80;;;7.80;;
70169;SDS011;57543;45.442;9.212;2023-03-08T13:09:57;13.65;;;6.50;;
70169;SDS011;57543;45.442;9.212;2023-03-08T13:19:20;13.65;;;6.43;;
70169;SDS011;57543;45.442;9.212;2023-03-08T13:22:28;13.27;;;6.97;;
70169;SDS011;57543;45.442;9.212;2023-03-08T13:28:49;11.70;;;5.33;;
70169;SDS011;57543;45.442;9.212;2023-03-08T13:31:53;10.27;;;4.70;;
70169;SDS011;57543;45.442;9.212;2023-03-08T13:34:58;10.32;;;4.07;;
70169;SDS011;57543;45.442;9.212;2023-03-08T13:38:15;11.32;;;4.15;;
70169;SDS011;57543;45.442;9.212;2023-03-08T13:41:33;11.63;;;4.35;;
70169;SDS011;57543;45.442;9.212;2023-03-08T13:44:41;10.73;;;5.20;;
70169;SDS011;57543;45.442;9.212;2023-03-08T13:47:44;10.68;;;4.85;;
70169;SDS011;57543;45.442;9.212;2023-03-08T13:50:52;12.38;;;5.80;;
70169;SDS011;57543;45.442;9.212;2023-03-08T13:53:56;12.57;;;4.95;;
70169;SDS011;57543;45.442;9.212;2023-03-08T13:57:00;11.07;;;5.45;;
70169;SDS011;57543;45.442;9.212;2023-03-08T14:00:25;16.13;;;6.20;;
70169;SDS011;57543;45.442;9.212;2023-03-08T14:03:33;13.82;;;5.75;;
70169;SDS011;57543;45.442;9.212;2023-03-08T14:06:36;14.55;;;6.38;;
70169;SDS011;57543;45.442;9.212;2023-03-08T14:09:40;11.95;;;5.10;;
70169;SDS011;57543;45.442;9.212;2023-03-08T14:12:44;11.13;;;5.90;;
70169;SDS011;57543;45.442;9.212;2023-03-08T14:15:49;14.73;;;6.00;;
70169;SDS011;57543;45.442;9.212;2023-03-08T14:18:55;10.20;;;5.85;;
70169;SDS011;57543;45.442;9.212;2023-03-08T14:22:01;12.30;;;4.93;;
70169;SDS011;57543;45.442;9.212;2023-03-08T14:31:35;11.30;;;5.20;;
70169;SDS011;57543;45.442;9.212;2023-03-08T14:34:42;12.65;;;5.07;;
70169;SDS011;57543;45.442;9.212;2023-03-08T14:37:48;11.50;;;5.03;;
70169;SDS011;57543;45.442;9.212;2023-03-08T14:40:52;10.45;;;4.57;;
70169;SDS011;57543;45.442;9.212;2023-03-08T14:43:56;10.05;;;5.00;;
70169;SDS011;57543;45.442;9.212;2023-03-08T14:47:07;10.40;;;4.73;;
70169;SDS011;57543;45.442;9.212;2023-03-08T14:50:21;11.63;;;5.07;;
70169;SDS011;57543;45.442;9.212;2023-03-08T14:53:27;11.68;;;4.57;;
70169;SDS011;57543;45.442;9.212;2023-03-08T14:56:42;21.58;;;4.53;;
70169;SDS011;57543;45.442;9.212;2023-03-08T14:59:46;11.18;;;4.63;;
70169;SDS011;57543;45.442;9.212;2023-03-08T15:02:50;11.13;;;4.23;;
70169;SDS011;57543;45.442;9.212;2023-03-08T15:05:54;13.60;;;5.60;;
70169;SDS011;57543;45.442;9.212;2023-03-08T15:08:58;10.45;;;4.40;;
70169;SDS011;57543;45.442;9.212;2023-03-08T15:12:03;11.95;;;4.15;;
70169;SDS011;57543;45.442;9.212;2023-03-08T15:15:13;9.45;;;4.78;;
70169;SDS011;57543;45.442;9.212;2023-03-08T15:18:17;9.03;;;4.13;;
70169;SDS011;57543;45.442;9.212;2023-03-08T15:21:21;9.55;;;3.80;;
70169;SDS011;57543;45.442;9.212;2023-03-08T15:24:28;9.07;;;3.88;;
70169;SDS011;57543;45.442;9.212;2023-03-08T15:27:32;10.95;;;4.25;;
70169;SDS011;57543;45.442;9.212;2023-03-08T15:30:36;9.32;;;4.00;;
70169;SDS011;57543;45.442;9.212;2023-03-08T15:33:39;11.37;;;4.00;;
70169;SDS011;57543;45.442;9.212;2023-03-08T15:36:43;11.93;;;3.90;;
70169;SDS011;57543;45.442;9.212;2023-03-08T15:39:47;9.15;;;4.47;;
70169;SDS011;57543;45.442;9.212;2023-03-08T15:42:51;10.45;;;4.05;;
70169;SDS011;57543;45.442;9.212;2023-03-08T15:45:54;9.10;;;4.63;;
70169;SDS011;57543;45.442;9.212;2023-03-08T15:48:58;10.40;;;4.47;;
70169;SDS011;57543;45.442;9.212;2023-03-08T15:52:02;8.18;;;3.72;;
70169;SDS011;57543;45.442;9.212;2023-03-08T15:55:06;9.38;;;4.10;;
70169;SDS011;57543;45.442;9.212;2023-03-08T15:58:10;9.23;;;4.45;;
70169;SDS011;57543;45.442;9.212;2023-03-08T16:01:14;10.45;;;4.50;;
70169;SDS011;57543;45.442;9.212;2023-03-08T16:04:18;12.60;;;4.30;;
70169;SDS011;57543;45.442;9.212;2023-03-08T16:07:22;11.15;;;4.30;;
70169;SDS011;57543;45.442;9.212;2023-03-08T16:10:27;10.75;;;4.45;;
70169;SDS011;57543;45.442;9.212;2023-03-08T16:13:33;11.20;;;3.85;;
70169;SDS011;57543;45.442;9.212;2023-03-08T16:16:36;7.68;;;4.18;;
70169;SDS011;57543;45.442;9.212;2023-03-08T16:19:40;11.43;;;4.57;;
70169;SDS011;57543;45.442;9.212;2023-03-08T16:22:44;15.07;;;5.55;;
70169;SDS011;57543;45.442;9.212;2023-03-08T16:26:00;13.02;;;4.93;;
70169;SDS011;57543;45.442;9.212;2023-03-08T16:29:07;12.02;;;4.50;;
70169;SDS011;57543;45.442;9.212;2023-03-08T16:32:12;8.70;;;4.00;;
70169;SDS011;57543;45.442;9.212;2023-03-08T16:35:17;12.50;;;4.47;;
70169;SDS011;57543;45.442;9.212;2023-03-08T16:38:21;14.40;;;4.72;;
70169;SDS011;57543;45.442;9.212;2023-03-08T16:41:24;9.00;;;4.30;;
70169;SDS011;57543;45.442;9.212;2023-03-08T16:44:31;10.27;;;4.72;;
70169;SDS011;57543;45.442;9.212;2023-03-08T16:47:35;12.20;;;5.00;;
70169;SDS011;57543;45.442;9.212;2023-03-08T16:50:39;10.53;;;4.43;;
70169;SDS011;57543;45.442;9.212;2023-03-08T16:53:43;10.35;;;4.50;;
70169;SDS011;57543;45.442;9.212;2023-03-08T16:56:46;9.45;;;4.38;;
70169;SDS011;57543;45.442;9.212;2023-03-08T16:59:50;8.98;;;4.50;;
70169;SDS011;57543;45.442;9.212;2023-03-08T17:02:53;9.63;;;4.43;;
70169;SDS011;57543;45.442;9.212;2023-03-08T17:05:57;9.70;;;4.57;;
70169;SDS011;57543;45.442;9.212;2023-03-08T17:09:01;9.98;;;4.65;;
70169;SDS011;57543;45.442;9.212;2023-03-08T17:12:06;9.63;;;4.43;;
70169;SDS011;57543;45.442;9.212;2023-03-08T17:15:11;11.18;;;4.72;;
70169;SDS011;57543;45.442;9.212;2023-03-08T17:18:15;11.38;;;4.95;;
70169;SDS011;57543;45.442;9.212;2023-03-08T17:21:19;12.40;;;5.47;;
70169;SDS011;57543;45.442;9.212;2023-03-08T17:24:23;12.68;;;4.90;;
70169;SDS011;57543;45.442;9.212;2023-03-08T17:27:30;16.40;;;6.13;;
70169;SDS011;57543;45.442;9.212;2023-03-08T17:30:33;11.02;;;4.72;;
70169;SDS011;57543;45.442;9.212;2023-03-08T17:33:38;11.07;;;5.50;;
70169;SDS011;57543;45.442;9.212;2023-03-08T17:36:42;10.53;;;4.80;;
70169;SDS011;57543;45.442;9.212;2023-03-08T17:39:48;11.23;;;4.75;;
70169;SDS011;57543;45.442;9.212;2023-03-08T17:42:52;10.35;;;4.78;;
70169;SDS011;57543;45.442;9.212;2023-03-08T17:46:03;8.90;;;4.57;;
70169;SDS011;57543;45.442;9.212;2023-03-08T17:49:13;10.25;;;4.53;;
70169;SDS011;57543;45.442;9.212;2023-03-08T17:52:19;11.83;;;4.60;;
70169;SDS011;57543;45.442;9.212;2023-03-08T17:55:25;9.70;;;4.70;;
70169;SDS011;57543;45.442;9.212;2023-03-08T17:58:29;8.90;;;4.88;;
70169;SDS011;57543;45.442;9.212;2023-03-08T18:01:33;10.20;;;5.07;;
70169;SDS011;57543;45.442;9.212;2023-03-08T18:04:37;10.45;;;4.82;;
70169;SDS011;57543;45.442;9.212;2023-03-08T18:07:40;11.60;;;4.60;;
70169;SDS011;57543;45.442;9.212;2023-03-08T18:10:44;12.05;;;4.82;;
70169;SDS011;57543;45.442;9.212;2023-03-08T18:13:47;9.68;;;4.82;;
70169;SDS011;57543;45.442;9.212;2023-03-08T18:16:54;12.80;;;5.00;;
70169;SDS011;57543;45.442;9.212;2023-03-08T18:19:58;11.57;;;5.38;;
70169;SDS011;57543;45.442;9.212;2023-03-08T18:23:02;12.73;;;4.93;;
70169;SDS011;57543;45.442;9.212;2023-03-08T18:26:07;9.13;;;4.55;;
70169;SDS011;57543;45.442;9.212;2023-03-08T18:29:12;10.82;;;5.10;;
70169;SDS011;57543;45.442;9.212;2023-03-08T18:32:16;10.93;;;5.20;;
70169;SDS011;57543;45.442;9.212;2023-03-08T18:35:19;14.77;;;6.00;;
70169;SDS011;57543;45.442;9.212;2023-03-08T18:38:23;9.23;;;5.13;;
70169;SDS011;57543;45.442;9.212;2023-03-08T18:41:27;11.95;;;5.60;;
70169;SDS011;57543;45.442;9.212;2023-03-08T18:44:31;11.48;;;6.10;;
70169;SDS011;57543;45.442;9.212;2023-03-08T18:47:35;12.23;;;5.80;;
70169;SDS011;57543;45.442;9.212;2023-03-08T18:50:39;13.70;;;5.72;;
70169;SDS011;57543;45.442;9.212;2023-03-08T18:53:45;12.13;;;5.20;;
70169;SDS011;57543;45.442;9.212;2023-03-08T18:56:49;13.68;;;5.50;;
70169;SDS011;57543;45.442;9.212;2023-03-08T18:59:55;9.90;;;5.22;;
70169;SDS011;57543;45.442;9.212;2023-03-08T19:02:59;10.02;;;5.20;;
70169;SDS011;57543;45.442;9.212;2023-03-08T19:06:03;10.68;;;5.13;;
70169;SDS011;57543;45.442;9.212;2023-03-08T19:09:09;10.93;;;5.00;;
70169;SDS011;57543;45.442;9.212;2023-03-08T19:12:14;10.00;;;5.03;;
70169;SDS011;57543;45.442;9.212;2023-03-08T19:15:18;14.63;;;6.47;;
70169;SDS011;57543;45.442;9.212;2023-03-08T19:18:22;14.55;;;6.95;;
70169;SDS011;57543;45.442;9.212;2023-03-08T19:21:27;12.27;;;6.32;;
70169;SDS011;57543;45.442;9.212;2023-03-08T19:24:32;16.63;;;7.20;;